Terminal Aerodrome Forecast
Issued by NWS

Home | Current Version | Previous Version | Text Only | Print | Product List | Glossary Off
Versions: 1 2 3 4 5 6 7 8 9 10 11 12 13 14 15 16

715
FTUS43 KFGF 081128
TAFBJI
TAF
KBJI 081128Z 0812/0912 31013KT 3SM -SN OVC015
     FM081400 31012KT P6SM -SN OVC015
      TEMPO 0814/0818 4SM -SN
     FM090100 31009KT P6SM OVC010=

USA.gov is the U.S. government's official web portal to all federal, state and local government web resources and services.